createdAt,value
2017-11-27T00:00:23.166Z,99.5
2017-11-27T00:01:36.195Z,99.21
2017-11-27T00:02:48.762Z,99.98
2017-11-27T00:04:01.779Z,99.79
2017-11-27T00:05:14.784Z,99.4
2017-11-27T00:06:27.790Z,99.21
2017-11-27T00:07:39.850Z,99.79
2017-11-27T00:08:52.817Z,99.98
2017-11-27T00:10:05.796Z,99.99
2017-11-27T00:11:18.763Z,99.99
2017-11-27T00:12:31.763Z,99.99
2017-11-27T00:13:43.330Z,99.99
2017-11-27T00:14:56.314Z,99.99
2017-11-27T00:16:09.352Z,99.99
2017-11-27T00:17:21.872Z,99.99
2017-11-27T00:18:34.918Z,99.99
2017-11-27T00:19:47.491Z,99.99
2017-11-27T00:21:00.469Z,99.99
2017-11-27T00:22:13.443Z,99.99
2017-11-27T00:23:25.512Z,99.99
2017-11-27T00:24:38.494Z,99.99
2017-11-27T00:25:51.497Z,99.99
2017-11-27T00:27:03.527Z,99.99
2017-11-27T00:28:16.544Z,99.99
2017-11-27T00:29:29.052Z,99.99
2017-11-27T00:30:41.099Z,99.4
2017-11-27T00:31:54.073Z,99.6
2017-11-27T00:33:07.043Z,99.99
2017-11-27T00:34:19.559Z,99.99
2017-11-27T00:35:32.040Z,99.99
2017-11-27T00:36:44.583Z,99.69
2017-11-27T00:37:57.604Z,99.99
2017-11-27T00:39:10.102Z,99.99
2017-11-27T00:40:23.096Z,99.99
2017-11-27T00:41:36.150Z,99.21
2017-11-27T00:42:49.172Z,99.98
2017-11-27T00:44:02.172Z,99.79
2017-11-27T00:45:15.192Z,99.79
2017-11-27T00:46:27.935Z,99.21
2017-11-27T00:47:40.434Z,99.79
2017-11-27T00:48:53.452Z,99.6
2017-11-27T00:50:05.520Z,99.99
2017-11-27T00:51:18.519Z,99.99
2017-11-27T00:52:30.538Z,99.99
2017-11-27T00:53:43.083Z,99.99
2017-11-27T00:54:56.254Z,99.99
2017-11-27T00:56:09.241Z,99.99
2017-11-27T00:57:22.232Z,99.99
2017-11-27T00:58:34.757Z,99.99
2017-11-27T00:59:47.019Z,99.99
2017-11-27T01:01:00.037Z,99.99
2017-11-27T01:02:12.532Z,99.99
2017-11-27T01:03:25.520Z,99.99
2017-11-27T01:04:38.519Z,99.99
2017-11-27T01:05:51.496Z,99.31
2017-11-27T01:07:04.030Z,99.69
2017-11-27T01:08:16.128Z,99.79
2017-11-27T01:09:29.146Z,99.98
2017-11-27T01:10:42.188Z,99.99
2017-11-27T01:11:54.667Z,99.99
2017-11-27T01:13:07.694Z,99.6
2017-11-27T01:14:20.177Z,99.99
2017-11-27T01:15:33.169Z,99.99
2017-11-27T01:16:46.215Z,99.99
2017-11-27T01:17:59.181Z,99.99
2017-11-27T01:19:12.172Z,99.99
2017-11-27T01:20:24.189Z,99.99
2017-11-27T01:21:36.667Z,99.69
2017-11-27T01:22:49.658Z,99.69
2017-11-27T01:24:01.720Z,99.5
2017-11-27T01:25:14.226Z,99.69
2017-11-27T01:26:27.246Z,99.5
2017-11-27T01:27:40.255Z,99.5
2017-11-27T01:28:52.794Z,99.4
2017-11-27T01:30:04.861Z,99.5
2017-11-27T01:31:17.889Z,99.6
2017-11-27T01:32:30.877Z,99.99
2017-11-27T01:33:43.916Z,99.99
2017-11-27T01:34:56.517Z,99.99
2017-11-27T01:36:09.537Z,99.99
2017-11-27T01:37:22.031Z,99.99
2017-11-27T01:38:35.040Z,99.99
2017-11-27T01:39:47.581Z,99.99
2017-11-27T01:41:00.578Z,99.69
2017-11-27T01:42:13.536Z,99.99
2017-11-27T01:43:26.460Z,99.79
2017-11-27T01:44:38.529Z,99.4
2017-11-27T01:45:51.530Z,99.5
2017-11-27T01:47:04.507Z,98.54
2017-11-27T01:48:17.510Z,98.83
2017-11-27T01:49:30.060Z,98.92
2017-11-27T01:50:43.224Z,99.99
2017-11-27T01:51:56.273Z,99.99
2017-11-27T01:53:09.433Z,99.99
2017-11-27T01:54:22.466Z,99.99
2017-11-27T01:55:35.500Z,99.99
2017-11-27T01:56:47.550Z,99.99
2017-11-27T01:58:00.071Z,99.99
2017-11-27T01:59:12.644Z,99.99
2017-11-27T02:00:25.652Z,99.99
2017-11-27T02:01:38.610Z,99.99
2017-11-27T02:02:50.666Z,99.99
2017-11-27T02:04:03.672Z,99.99
2017-11-27T02:05:16.688Z,99.99
2017-11-27T02:06:29.709Z,99.99
2017-11-27T02:07:42.724Z,99.99
2017-11-27T02:08:55.965Z,99.99
2017-11-27T02:10:08.979Z,99.99
2017-11-27T02:11:21.958Z,99.99
2017-11-27T02:12:34.926Z,99.99
2017-11-27T02:13:47.920Z,99.99
2017-11-27T02:15:00.942Z,99.99
2017-11-27T02:16:14.093Z,99.99
2017-11-27T02:17:27.049Z,99.99
2017-11-27T02:18:40.068Z,99.99
2017-11-27T02:19:53.041Z,99.99
2017-11-27T02:21:06.073Z,99.99
2017-11-27T02:22:18.578Z,99.99
2017-11-27T02:23:31.869Z,99.99
2017-11-27T02:24:44.601Z,99.99
2017-11-27T02:25:57.580Z,99.99
2017-11-27T02:27:10.790Z,99.99
2017-11-27T02:28:23.798Z,99.99
2017-11-27T02:29:36.279Z,99.99
2017-11-27T02:30:49.315Z,99.99
2017-11-27T02:32:01.864Z,99.99
2017-11-27T02:33:14.385Z,99.99
2017-11-27T02:34:27.395Z,99.99
2017-11-27T02:35:40.369Z,99.99
2017-11-27T02:36:53.388Z,99.99
2017-11-27T02:38:06.408Z,99.99
2017-11-27T02:39:19.430Z,99.99
2017-11-27T02:40:31.957Z,99.99
2017-11-27T02:41:44.513Z,99.99
2017-11-27T02:42:56.568Z,99.99
2017-11-27T02:44:09.554Z,99.99
2017-11-27T02:45:22.545Z,99.99
2017-11-27T02:46:35.577Z,99.99
2017-11-27T02:47:47.641Z,99.99
2017-11-27T02:49:00.654Z,99.99
2017-11-27T02:50:13.225Z,99.99
2017-11-27T02:51:25.269Z,99.99
2017-11-27T02:52:38.270Z,99.99
2017-11-27T02:53:50.790Z,99.99
2017-11-27T02:55:03.822Z,99.99
2017-11-27T02:56:16.861Z,99.99
2017-11-27T02:57:30.037Z,99.99
2017-11-27T02:58:43.030Z,99.99
2017-11-27T02:59:55.576Z,99.99
2017-11-27T03:01:08.141Z,99.99
2017-11-27T03:02:21.153Z,99.99
2017-11-27T03:03:34.137Z,99.99
2017-11-27T03:04:46.171Z,99.99
2017-11-27T03:05:59.207Z,99.99
2017-11-27T03:07:12.204Z,99.99
2017-11-27T03:08:24.717Z,99.99
2017-11-27T03:09:37.728Z,99.99
2017-11-27T03:10:50.283Z,99.99
2017-11-27T03:12:03.309Z,99.99
2017-11-27T03:13:15.870Z,99.99
2017-11-27T03:14:28.816Z,99.99
2017-11-27T03:15:41.326Z,99.99
2017-11-27T03:16:54.288Z,99.99
2017-11-27T03:18:07.240Z,99.99
2017-11-27T03:19:20.238Z,99.99
2017-11-27T03:20:33.266Z,99.99
2017-11-27T03:21:46.467Z,99.99
2017-11-27T03:22:59.437Z,99.99
2017-11-27T03:24:12.451Z,99.99
2017-11-27T03:25:25.415Z,99.99
2017-11-27T03:26:38.404Z,99.99
2017-11-27T03:27:50.957Z,99.99
2017-11-27T03:29:03.561Z,99.99
2017-11-27T03:30:16.580Z,99.99
2017-11-27T03:31:29.661Z,99.99
2017-11-27T03:32:42.698Z,99.99
2017-11-27T03:33:55.238Z,99.99
2017-11-27T03:35:08.469Z,99.99
2017-11-27T03:36:21.019Z,99.99
2017-11-27T03:37:33.560Z,99.99
2017-11-27T03:38:46.126Z,99.99
2017-11-27T03:39:58.655Z,99.99
2017-11-27T03:41:11.392Z,99.99
2017-11-27T03:42:23.437Z,99.99
2017-11-27T03:43:35.463Z,99.99
2017-11-27T03:44:48.465Z,99.99
2017-11-27T03:46:01.455Z,99.99
2017-11-27T03:47:14.453Z,99.99
2017-11-27T03:48:27.001Z,99.99
2017-11-27T03:49:39.997Z,99.99
2017-11-27T03:50:52.969Z,99.99
2017-11-27T03:52:05.959Z,99.99
2017-11-27T03:53:18.954Z,99.99
2017-11-27T03:54:31.948Z,99.99
2017-11-27T03:55:44.488Z,99.99
2017-11-27T03:56:57.458Z,99.99
2017-11-27T03:58:10.513Z,99.99
2017-11-27T03:59:23.066Z,99.99
2017-11-27T04:00:36.097Z,99.99
2017-11-27T04:01:49.118Z,99.99
2017-11-27T04:03:02.109Z,99.99
2017-11-27T04:04:15.090Z,99.99
2017-11-27T04:05:28.101Z,99.99
2017-11-27T04:06:40.637Z,99.99
2017-11-27T04:07:53.586Z,99.99
2017-11-27T04:09:06.598Z,99.99
2017-11-27T04:10:19.143Z,99.99
2017-11-27T04:11:32.160Z,99.99
2017-11-27T04:12:44.677Z,99.99
2017-11-27T04:13:57.701Z,99.99
2017-11-27T04:15:10.768Z,99.99
2017-11-27T04:16:23.312Z,99.99
2017-11-27T04:17:36.506Z,99.99
2017-11-27T04:18:49.519Z,99.99
2017-11-27T04:20:02.008Z,99.99
2017-11-27T04:21:15.029Z,99.99
2017-11-27T04:22:27.552Z,99.99
2017-11-27T04:23:40.516Z,99.99
2017-11-27T04:24:53.490Z,99.99
2017-11-27T04:26:06.028Z,99.99
2017-11-27T04:27:18.999Z,99.99
2017-11-27T04:28:32.014Z,99.99
2017-11-27T04:29:44.574Z,99.99
2017-11-27T04:30:57.550Z,99.99
2017-11-27T04:32:10.531Z,99.99
2017-11-27T04:33:23.021Z,99.99
2017-11-27T04:34:36.027Z,99.99
2017-11-27T04:35:48.080Z,99.99
2017-11-27T04:37:01.087Z,99.99
2017-11-27T04:38:14.113Z,99.99
2017-11-27T04:39:26.238Z,99.99
2017-11-27T04:40:39.282Z,99.99
2017-11-27T04:41:51.815Z,99.99
2017-11-27T04:43:04.792Z,99.99
2017-11-27T04:44:17.758Z,99.99
2017-11-27T04:45:30.282Z,99.99
2017-11-27T04:46:43.318Z,99.99
2017-11-27T04:47:55.889Z,99.99
2017-11-27T04:49:07.948Z,99.99
2017-11-27T04:50:20.919Z,99.99
2017-11-27T04:51:33.938Z,99.99
2017-11-27T04:52:46.936Z,99.99
2017-11-27T04:53:59.919Z,99.99
2017-11-27T04:55:12.920Z,99.99
2017-11-27T04:56:25.887Z,99.99
2017-11-27T04:57:38.854Z,99.99
2017-11-27T04:58:51.431Z,99.99
2017-11-27T05:00:04.455Z,99.99
2017-11-27T05:01:17.446Z,99.99
2017-11-27T05:02:30.473Z,99.99
2017-11-27T05:03:42.522Z,99.99
2017-11-27T05:04:55.547Z,99.99
2017-11-27T05:06:08.100Z,99.99
2017-11-27T05:07:21.130Z,99.99
2017-11-27T05:08:33.691Z,99.99
2017-11-27T05:09:46.437Z,99.99
2017-11-27T05:10:59.044Z,99.99
2017-11-27T05:12:12.070Z,99.99
2017-11-27T05:13:25.089Z,99.99
2017-11-27T05:14:38.109Z,99.99
2017-11-27T05:15:50.158Z,99.99
2017-11-27T05:17:03.146Z,99.99
2017-11-27T05:18:16.121Z,99.99
2017-11-27T05:19:29.134Z,99.99
2017-11-27T05:20:42.114Z,99.99
2017-11-27T05:21:55.099Z,99.99
2017-11-27T05:23:07.180Z,99.99
2017-11-27T05:24:20.187Z,99.99
2017-11-27T05:25:33.228Z,99.99
2017-11-27T05:26:45.808Z,99.99
2017-11-27T05:27:58.324Z,99.99
2017-11-27T05:29:11.354Z,99.99
2017-11-27T05:30:24.359Z,99.99
2017-11-27T05:31:37.381Z,99.99
2017-11-27T05:32:50.407Z,99.99
2017-11-27T05:34:03.445Z,99.99
2017-11-27T05:35:16.447Z,99.99
2017-11-27T05:36:29.432Z,99.99
2017-11-27T05:37:41.466Z,99.99
2017-11-27T05:38:54.445Z,99.99
2017-11-27T05:40:07.478Z,99.99
2017-11-27T05:41:20.256Z,99.99
2017-11-27T05:42:33.300Z,99.99
2017-11-27T05:43:45.844Z,99.99
2017-11-27T05:44:58.873Z,99.99
2017-11-27T05:46:11.849Z,99.99
2017-11-27T05:47:24.889Z,99.99
2017-11-27T05:48:37.411Z,99.99
2017-11-27T05:49:50.416Z,99.99
2017-11-27T05:51:03.552Z,99.99
2017-11-27T05:52:16.559Z,99.99
2017-11-27T05:53:29.561Z,99.99
2017-11-27T05:54:41.153Z,99.99
2017-11-27T05:55:54.128Z,99.99
2017-11-27T05:57:07.108Z,99.99
2017-11-27T05:58:20.119Z,99.99
2017-11-27T05:59:32.610Z,99.99
2017-11-27T06:00:45.169Z,99.99
2017-11-27T06:01:58.196Z,99.99
2017-11-27T06:03:10.749Z,99.99
2017-11-27T06:04:23.740Z,99.99
2017-11-27T06:05:36.250Z,99.99
2017-11-27T06:06:48.814Z,99.99
2017-11-27T06:08:01.859Z,99.99
2017-11-27T06:09:14.880Z,99.99
2017-11-27T06:10:27.886Z,99.99
2017-11-27T06:11:40.914Z,99.99
2017-11-27T06:12:53.471Z,99.99
2017-11-27T06:14:06.015Z,99.99
2017-11-27T06:15:19.011Z,99.99
2017-11-27T06:16:31.988Z,99.99
2017-11-27T06:17:44.766Z,99.99
2017-11-27T06:18:57.805Z,99.99
2017-11-27T06:20:10.821Z,99.99
2017-11-27T06:21:23.765Z,99.99
2017-11-27T06:22:36.982Z,99.99
2017-11-27T06:23:49.954Z,99.99
2017-11-27T06:25:02.942Z,99.99
2017-11-27T06:26:15.917Z,99.99
2017-11-27T06:27:28.880Z,99.99
2017-11-27T06:28:41.388Z,99.99
2017-11-27T06:29:54.409Z,99.99
2017-11-27T06:31:06.939Z,99.99
2017-11-27T06:32:19.965Z,99.99
2017-11-27T06:33:32.484Z,99.99
2017-11-27T06:34:45.519Z,99.99
2017-11-27T06:35:58.068Z,99.99
2017-11-27T06:37:11.055Z,99.99
2017-11-27T06:38:23.560Z,99.99
2017-11-27T06:39:36.546Z,99.99
2017-11-27T06:40:49.079Z,99.99
2017-11-27T06:42:02.108Z,99.99
2017-11-27T06:43:15.126Z,99.99
2017-11-27T06:44:26.829Z,99.99
2017-11-27T06:45:39.802Z,99.99
2017-11-27T06:46:52.796Z,99.99
2017-11-27T06:48:05.769Z,99.99
2017-11-27T06:49:18.725Z,99.99
2017-11-27T06:50:31.708Z,99.99
2017-11-27T06:51:44.639Z,99.99
2017-11-27T06:52:57.174Z,99.99
2017-11-27T06:54:10.168Z,99.99
2017-11-27T06:55:23.139Z,99.99
2017-11-27T06:56:35.659Z,99.99
2017-11-27T06:57:47.717Z,99.99
2017-11-27T06:59:00.698Z,99.99
2017-11-27T07:00:13.689Z,99.99
2017-11-27T07:01:26.883Z,99.99
2017-11-27T07:02:39.475Z,99.99
2017-11-27T07:03:52.476Z,99.99
2017-11-27T07:05:05.473Z,99.99
2017-11-27T07:06:18.460Z,99.99
2017-11-27T07:07:30.947Z,99.99
2017-11-27T07:08:43.941Z,99.99
2017-11-27T07:09:56.908Z,99.99
2017-11-27T07:11:09.885Z,99.99
2017-11-27T07:12:22.877Z,99.99
2017-11-27T07:13:35.413Z,99.99
2017-11-27T07:14:47.969Z,99.99
2017-11-27T07:16:01.202Z,99.99
2017-11-27T07:17:14.247Z,99.99
2017-11-27T07:18:27.286Z,99.99
2017-11-27T07:19:40.284Z,99.99
2017-11-27T07:20:53.275Z,99.99
2017-11-27T07:22:06.198Z,99.99
2017-11-27T07:23:18.707Z,99.99
2017-11-27T07:24:31.711Z,99.99
2017-11-27T07:25:44.262Z,99.99
2017-11-27T07:26:57.033Z,99.99
2017-11-27T07:28:09.544Z,99.99
2017-11-27T07:29:22.551Z,99.99
2017-11-27T07:30:35.507Z,99.99
2017-11-27T07:31:48.484Z,99.99
2017-11-27T07:33:01.673Z,99.99
2017-11-27T07:34:14.683Z,99.99
2017-11-27T07:35:27.684Z,99.99
2017-11-27T07:36:40.688Z,99.99
2017-11-27T07:37:53.702Z,99.99
2017-11-27T07:39:06.643Z,99.99
2017-11-27T07:40:19.649Z,99.99
2017-11-27T07:41:32.637Z,99.99
2017-11-27T07:42:45.601Z,99.99
2017-11-27T07:43:58.335Z,99.99
2017-11-27T07:45:11.285Z,99.99
2017-11-27T07:46:24.278Z,99.99
2017-11-27T07:47:37.244Z,99.99
2017-11-27T07:48:50.198Z,99.99
2017-11-27T07:50:03.218Z,99.99
2017-11-27T07:51:15.766Z,99.99
2017-11-27T07:52:28.277Z,99.99
2017-11-27T07:53:41.274Z,99.99
2017-11-27T07:54:53.782Z,99.99
2017-11-27T07:56:06.775Z,99.99
2017-11-27T07:57:19.725Z,99.99
2017-11-27T07:58:32.728Z,99.99
2017-11-27T07:59:45.255Z,99.99
2017-11-27T08:00:58.260Z,99.99
2017-11-27T08:02:11.220Z,99.99
2017-11-27T08:03:24.247Z,99.99
2017-11-27T08:04:36.747Z,99.99
2017-11-27T08:05:49.285Z,99.99
2017-11-27T08:07:02.268Z,99.99
2017-11-27T08:08:14.770Z,99.99
2017-11-27T08:09:27.768Z,99.99
2017-11-27T08:10:40.306Z,99.99
2017-11-27T08:11:52.367Z,99.99
2017-11-27T08:13:04.440Z,99.99
2017-11-27T08:14:17.463Z,99.99
2017-11-27T08:15:29.991Z,99.99
2017-11-27T08:16:42.973Z,99.99
2017-11-27T08:17:55.482Z,99.99
2017-11-27T08:19:08.508Z,99.99
2017-11-27T08:20:21.524Z,99.99
2017-11-27T08:21:34.492Z,99.99
2017-11-27T08:22:47.532Z,99.99
2017-11-27T08:24:00.105Z,99.99
2017-11-27T08:25:13.078Z,99.99
2017-11-27T08:26:26.029Z,99.99
2017-11-27T08:27:38.987Z,99.99
2017-11-27T08:28:52.005Z,99.99
2017-11-27T08:30:04.566Z,99.99
2017-11-27T08:31:17.105Z,99.99
2017-11-27T08:32:29.609Z,99.99
2017-11-27T08:33:41.674Z,99.99
2017-11-27T08:34:54.667Z,99.99
2017-11-27T08:36:07.674Z,99.99
2017-11-27T08:37:19.266Z,99.99
2017-11-27T08:38:31.811Z,99.99
2017-11-27T08:39:43.841Z,99.99
2017-11-27T08:40:56.826Z,99.99
2017-11-27T08:42:09.342Z,99.99
2017-11-27T08:43:21.847Z,99.99
2017-11-27T08:44:34.829Z,99.99
2017-11-27T08:45:47.307Z,99.99
2017-11-27T08:47:00.311Z,99.99
2017-11-27T08:48:13.316Z,99.99
2017-11-27T08:49:25.869Z,99.99
2017-11-27T08:50:37.918Z,99.99
2017-11-27T08:51:50.922Z,99.99
2017-11-27T08:53:03.428Z,99.99
2017-11-27T08:54:16.378Z,99.99
2017-11-27T08:55:28.973Z,99.99
2017-11-27T08:56:41.520Z,99.99
2017-11-27T08:57:54.489Z,99.99
2017-11-27T08:59:07.527Z,99.99
2017-11-27T09:00:20.534Z,99.99
2017-11-27T09:01:33.084Z,99.99
2017-11-27T09:02:46.329Z,99.99
2017-11-27T09:03:58.852Z,99.99
2017-11-27T09:05:11.592Z,99.99
2017-11-27T09:06:24.068Z,99.99
2017-11-27T09:07:36.598Z,99.99
2017-11-27T09:08:49.566Z,99.99
2017-11-27T09:10:02.067Z,99.99
2017-11-27T09:11:15.048Z,99.99
2017-11-27T09:12:28.080Z,99.99
2017-11-27T09:13:41.118Z,99.99
2017-11-27T09:14:54.085Z,99.99
2017-11-27T09:16:06.630Z,99.99
2017-11-27T09:17:19.169Z,99.99
2017-11-27T09:18:32.127Z,99.99
2017-11-27T09:19:45.064Z,99.99
2017-11-27T09:20:58.094Z,99.99
2017-11-27T09:22:11.287Z,99.99
2017-11-27T09:23:24.285Z,99.99
2017-11-27T09:24:37.263Z,99.99
2017-11-27T09:25:49.783Z,99.99
2017-11-27T09:27:02.760Z,99.99
2017-11-27T09:28:15.754Z,99.99
2017-11-27T09:29:28.738Z,99.99
2017-11-27T09:30:40.313Z,99.99
2017-11-27T09:31:52.584Z,99.99
2017-11-27T09:33:05.118Z,99.99
2017-11-27T09:34:18.141Z,99.99
2017-11-27T09:35:31.113Z,99.99
2017-11-27T09:36:43.664Z,99.99
2017-11-27T09:37:56.696Z,99.99
2017-11-27T09:39:09.710Z,99.99
2017-11-27T09:40:22.229Z,99.99
2017-11-27T09:41:34.737Z,99.99
2017-11-27T09:42:47.712Z,99.99
2017-11-27T09:44:00.251Z,99.99
2017-11-27T09:45:12.781Z,99.99
2017-11-27T09:46:25.751Z,99.99
2017-11-27T09:47:38.780Z,99.99
2017-11-27T09:48:51.317Z,99.99
2017-11-27T09:50:04.302Z,99.99
2017-11-27T09:51:16.833Z,99.99
2017-11-27T09:52:30.050Z,99.99
2017-11-27T09:53:42.100Z,99.99
2017-11-27T09:54:55.134Z,99.99
2017-11-27T09:56:07.677Z,99.99
2017-11-27T09:57:20.724Z,99.99
2017-11-27T09:58:32.770Z,99.99
2017-11-27T09:59:44.803Z,99.99
2017-11-27T10:00:57.350Z,99.99
2017-11-27T10:02:10.370Z,99.99
2017-11-27T10:03:23.221Z,99.99
2017-11-27T10:04:34.889Z,99.99
2017-11-27T10:05:47.465Z,99.99
2017-11-27T10:07:00.500Z,99.99
2017-11-27T10:08:13.080Z,99.99
2017-11-27T10:09:26.377Z,99.99
2017-11-27T10:10:38.424Z,99.99
2017-11-27T10:11:50.917Z,99.99
2017-11-27T10:13:03.774Z,99.99
2017-11-27T10:14:16.833Z,99.99
2017-11-27T10:15:29.365Z,99.99
2017-11-27T10:16:42.374Z,99.99
2017-11-27T10:17:54.412Z,99.99
2017-11-27T10:19:05.512Z,99.99
2017-11-27T10:20:18.539Z,99.99
2017-11-27T10:21:30.604Z,99.99
2017-11-27T10:22:43.586Z,99.99
2017-11-27T10:23:56.579Z,99.99
2017-11-27T10:25:09.578Z,99.99
2017-11-27T10:26:22.194Z,99.99
2017-11-27T10:27:35.234Z,99.99
2017-11-27T10:28:47.748Z,99.99
2017-11-27T10:30:00.773Z,99.99
2017-11-27T10:31:13.332Z,99.99
2017-11-27T10:32:25.887Z,99.99
2017-11-27T10:33:38.831Z,99.99
2017-11-27T10:34:51.393Z,99.99
2017-11-27T10:36:04.400Z,99.99
2017-11-27T10:37:17.429Z,99.99
2017-11-27T10:38:30.386Z,99.99
2017-11-27T10:39:43.378Z,99.99
2017-11-27T10:40:56.431Z,99.99
2017-11-27T10:42:09.432Z,99.99
2017-11-27T10:43:22.430Z,99.99
2017-11-27T10:44:35.583Z,99.99
2017-11-27T10:45:48.567Z,99.99
2017-11-27T10:47:01.203Z,99.99
2017-11-27T10:48:13.737Z,99.99
2017-11-27T10:49:26.541Z,99.99
2017-11-27T10:50:39.516Z,99.99
2017-11-27T10:51:52.540Z,99.99
2017-11-27T10:53:04.561Z,99.99
2017-11-27T10:54:17.563Z,99.99
2017-11-27T10:55:30.616Z,99.99
2017-11-27T10:56:42.692Z,99.99
2017-11-27T10:57:55.170Z,99.99
2017-11-27T10:59:08.153Z,99.99
2017-11-27T11:00:21.180Z,99.99
2017-11-27T11:01:34.236Z,99.99
2017-11-27T11:02:47.234Z,99.99
2017-11-27T11:04:00.258Z,99.99
2017-11-27T11:05:12.329Z,99.99
2017-11-27T11:06:25.358Z,99.99
2017-11-27T11:07:38.348Z,99.99
2017-11-27T11:08:50.402Z,99.99
2017-11-27T11:10:03.404Z,99.99
2017-11-27T11:11:16.426Z,99.99
2017-11-27T11:13:00.140Z,99.99
2017-11-27T11:14:12.671Z,99.99
2017-11-27T11:15:25.823Z,99.99
2017-11-27T11:16:38.367Z,99.99
2017-11-27T11:17:50.905Z,99.99
2017-11-27T11:19:03.945Z,99.99
2017-11-27T11:20:17.024Z,99.99
2017-11-27T11:21:29.575Z,99.99
2017-11-27T11:22:41.641Z,99.99
2017-11-27T11:23:54.821Z,99.99
2017-11-27T11:25:08.056Z,99.99
2017-11-27T11:26:21.032Z,99.99
2017-11-27T11:27:34.208Z,99.99
2017-11-27T11:28:46.314Z,99.99
2017-11-27T11:29:58.350Z,99.99
2017-11-27T11:31:09.988Z,99.99
2017-11-27T11:32:22.071Z,99.99
2017-11-27T11:33:34.697Z,99.99
2017-11-27T11:34:47.939Z,99.99
2017-11-27T11:36:00.475Z,99.99
2017-11-27T11:37:13.029Z,99.99
2017-11-27T11:38:26.057Z,99.99
2017-11-27T11:39:38.651Z,99.99
2017-11-27T11:40:51.648Z,99.99
2017-11-27T11:42:04.530Z,99.99
2017-11-27T11:43:17.567Z,99.99
2017-11-27T11:44:30.590Z,99.99
2017-11-27T11:45:43.571Z,99.99
2017-11-27T11:46:56.563Z,99.99
2017-11-27T11:48:09.567Z,99.99
2017-11-27T11:49:22.567Z,99.99
2017-11-27T11:50:35.551Z,99.99
2017-11-27T11:51:48.601Z,99.89
2017-11-27T11:53:01.589Z,99.99
2017-11-27T11:54:14.124Z,99.99
2017-11-27T11:55:28.513Z,99.99
2017-11-27T11:56:41.535Z,99.99
2017-11-27T11:57:54.566Z,99.99
2017-11-27T11:59:07.358Z,99.99
2017-11-27T12:00:20.378Z,99.99
2017-11-27T12:01:32.437Z,99.99
2017-11-27T12:02:44.522Z,99.99
2017-11-27T12:03:57.083Z,99.99
2017-11-27T12:05:10.081Z,99.99
2017-11-27T12:06:23.166Z,99.99
2017-11-27T12:07:35.712Z,99.99
2017-11-27T12:08:48.744Z,99.99
2017-11-27T12:10:01.270Z,99.99
2017-11-27T12:11:13.799Z,99.99
2017-11-27T12:12:25.885Z,99.99
2017-11-27T12:13:38.859Z,99.99
2017-11-27T12:14:50.465Z,99.99
2017-11-27T12:16:03.477Z,99.99
2017-11-27T12:17:15.963Z,99.99
2017-11-27T12:18:29.053Z,99.99
2017-11-27T12:19:41.571Z,99.99
2017-11-27T12:20:54.138Z,99.99
2017-11-27T12:22:07.172Z,99.99
2017-11-27T12:23:20.157Z,99.99
2017-11-27T12:24:32.237Z,99.99
2017-11-27T12:25:44.844Z,99.99
2017-11-27T12:26:57.358Z,99.99
2017-11-27T12:28:10.413Z,99.99
2017-11-27T12:29:23.427Z,99.99
2017-11-27T12:30:35.989Z,99.99
2017-11-27T12:31:48.543Z,99.99
2017-11-27T12:33:01.547Z,99.99
2017-11-27T12:34:14.547Z,99.99
2017-11-27T12:35:26.595Z,98.83
2017-11-27T12:36:38.657Z,99.99
2017-11-27T12:37:51.196Z,99.99
2017-11-27T12:39:04.173Z,99.99
2017-11-27T12:40:17.205Z,99.99
2017-11-27T12:41:29.775Z,99.99
2017-11-27T12:42:41.852Z,99.99
2017-11-27T12:43:54.393Z,99.99
2017-11-27T12:45:06.937Z,99.99
2017-11-27T12:46:19.959Z,99.99
2017-11-27T12:47:32.049Z,99.99
2017-11-27T12:48:45.081Z,99.99
2017-11-27T12:49:57.691Z,99.99
2017-11-27T12:51:10.261Z,99.99
2017-11-27T12:52:23.316Z,98.3
2017-11-27T12:53:35.880Z,95.44
2017-11-27T12:54:48.522Z,95.01
2017-11-27T12:56:01.299Z,89.87
2017-11-27T12:57:13.834Z,89.23
2017-11-27T12:58:26.864Z,89.23
2017-11-27T12:59:39.875Z,89.72
2017-11-27T13:00:52.865Z,87.98
2017-11-27T13:02:05.101Z,88.61
2017-11-27T13:03:17.602Z,88.32
2017-11-27T13:04:30.093Z,87.64
2017-11-27T13:05:42.648Z,85.99
2017-11-27T13:06:55.723Z,85.15
2017-11-27T13:08:08.325Z,84.86
2017-11-27T13:09:21.332Z,84.03
2017-11-27T13:10:34.356Z,82.34
2017-11-27T13:11:47.098Z,85.89
2017-11-27T13:13:00.099Z,86.91
2017-11-27T13:14:13.109Z,86.96
2017-11-27T13:15:26.091Z,88.76
2017-11-27T13:16:39.127Z,89.92
2017-11-27T13:17:52.159Z,89.63
2017-11-27T13:19:05.195Z,91.82
2017-11-27T13:20:17.740Z,92.1
2017-11-27T13:21:30.779Z,92.2
2017-11-27T13:22:42.395Z,92.97
2017-11-27T13:23:55.414Z,90.56
2017-11-27T13:25:08.465Z,88.67
2017-11-27T13:26:21.486Z,86.38
2017-11-27T13:27:34.004Z,84.14
2017-11-27T13:28:46.536Z,84.09
2017-11-27T13:29:59.550Z,81.31
2017-11-27T13:31:12.211Z,79.71
2017-11-27T13:32:24.283Z,79.41
2017-11-27T13:33:36.818Z,80.83
2017-11-27T13:34:49.862Z,81.02
2017-11-27T13:36:03.535Z,80.48
2017-11-27T13:37:16.112Z,76.34
2017-11-27T13:38:28.209Z,77.06
2017-11-27T13:39:41.242Z,73.69
2017-11-27T13:40:53.819Z,72.72
2017-11-27T13:42:06.377Z,71.98
2017-11-27T13:43:18.953Z,74.76
2017-11-27T13:44:32.026Z,73.95
2017-11-27T13:45:44.593Z,76.48
2017-11-27T13:46:57.621Z,74.21
2017-11-27T13:48:10.182Z,75.8
2017-11-27T13:49:23.191Z,74.54
2017-11-27T13:50:36.211Z,72.82
2017-11-27T13:51:49.253Z,71.94
2017-11-27T13:53:02.311Z,71.88
2017-11-27T13:54:15.332Z,73.4
2017-11-27T13:55:28.413Z,74.48
2017-11-27T13:56:41.411Z,75.64
2017-11-27T13:57:54.489Z,76.57
2017-11-27T13:59:07.729Z,75.67
2017-11-27T14:00:20.759Z,75.67
2017-11-27T14:01:33.745Z,75.21
2017-11-27T14:02:46.260Z,75.8
2017-11-27T14:03:59.310Z,76.98
2017-11-27T14:05:12.382Z,77.86
2017-11-27T14:06:24.443Z,76.98
2017-11-27T14:07:37.449Z,78.11
2017-11-27T14:08:49.994Z,77.53
2017-11-27T14:10:02.001Z,77.82
2017-11-27T14:11:15.096Z,78.4
2017-11-27T14:12:28.103Z,79.66
2017-11-27T14:13:41.149Z,80.79
2017-11-27T14:14:54.185Z,81.91
2017-11-27T14:16:06.745Z,82.69
2017-11-27T14:17:19.747Z,80.8
2017-11-27T14:18:32.730Z,81.68
2017-11-27T14:19:45.791Z,80.36
2017-11-27T14:20:59.030Z,79.55
2017-11-27T14:22:12.030Z,79.06
2017-11-27T14:23:24.566Z,80.52
2017-11-27T14:24:37.572Z,81.39
2017-11-27T14:25:50.588Z,80.42
2017-11-27T14:27:03.621Z,81.2
2017-11-27T14:28:16.109Z,81.58
2017-11-27T14:29:28.602Z,78.58
2017-11-27T14:30:41.615Z,81.25
2017-11-27T14:31:54.627Z,80.47
2017-11-27T14:33:07.165Z,80.67
2017-11-27T14:34:20.226Z,80.47
2017-11-27T14:35:32.842Z,79.06
2017-11-27T14:36:45.894Z,79.84
2017-11-27T14:37:59.574Z,77.84
2017-11-27T14:39:12.121Z,79.43
2017-11-27T14:40:25.187Z,77.55
2017-11-27T14:41:38.377Z,76.91
2017-11-27T14:42:50.887Z,76.56
2017-11-27T14:44:03.405Z,74.95
2017-11-27T14:45:16.463Z,73.37
2017-11-27T14:46:29.488Z,69.84
2017-11-27T14:47:41.993Z,70.58
2017-11-27T14:48:54.044Z,71.94
2017-11-27T14:50:07.110Z,70.78
2017-11-27T14:51:19.649Z,72.72
2017-11-27T14:52:32.630Z,72.78
2017-11-27T14:53:45.624Z,71.72
2017-11-27T14:54:57.667Z,73.82
2017-11-27T14:56:10.190Z,72.85
2017-11-27T14:57:23.168Z,73.39
2017-11-27T14:58:35.718Z,74.65
2017-11-27T14:59:47.799Z,73
2017-11-27T15:01:00.825Z,71.1
2017-11-27T15:02:13.854Z,68.54
2017-11-27T15:03:25.793Z,67.8
2017-11-27T15:04:38.796Z,69
2017-11-27T15:05:51.363Z,66.27
2017-11-27T15:07:04.422Z,66.99
2017-11-27T15:08:17.022Z,67.08
2017-11-27T15:09:29.137Z,68.77
2017-11-27T15:10:42.154Z,69.9
2017-11-27T15:11:54.728Z,70.81
2017-11-27T15:13:07.279Z,69.7
2017-11-27T15:14:20.288Z,71.45
2017-11-27T15:15:33.501Z,72.39
2017-11-27T15:16:46.726Z,73.13
2017-11-27T15:17:59.724Z,73.52
2017-11-27T15:19:12.728Z,73.94
2017-11-27T15:20:25.719Z,73.74
2017-11-27T15:21:38.724Z,75.1
2017-11-27T15:22:51.319Z,73.84
2017-11-27T15:24:04.329Z,73.55
2017-11-27T15:25:17.300Z,74.19
2017-11-27T15:26:30.305Z,74.49
2017-11-27T15:27:43.299Z,75.26
2017-11-27T15:28:56.316Z,74
2017-11-27T15:30:09.328Z,73.94
2017-11-27T15:31:22.352Z,73.46
2017-11-27T15:32:35.541Z,71.55
2017-11-27T15:33:48.558Z,72.75
2017-11-27T15:35:01.296Z,72.94
2017-11-27T15:36:14.315Z,70.87
2017-11-27T15:37:26.830Z,71
2017-11-27T15:38:39.352Z,71.33